sensor_id;sensor_type;location;lat;lon;timestamp;P1;durP1;ratioP1;P2;durP2;ratioP2
75400;SDS011;63974;47.538;18.972;2023-07-31T00:09:42;2.45;;;2.08;;
75400;SDS011;63974;47.538;18.972;2023-07-31T00:12:45;3.28;;;2.15;;
75400;SDS011;63974;47.538;18.972;2023-07-31T00:15:48;3.60;;;2.17;;
75400;SDS011;63974;47.538;18.972;2023-07-31T00:18:51;2.50;;;1.80;;
75400;SDS011;63974;47.538;18.972;2023-07-31T00:21:53;5.10;;;2.20;;
75400;SDS011;63974;47.538;18.972;2023-07-31T00:24:56;3.05;;;2.40;;
75400;SDS011;63974;47.538;18.972;2023-07-31T00:28:00;4.38;;;2.28;;
75400;SDS011;63974;47.538;18.972;2023-07-31T00:31:02;2.85;;;1.90;;
75400;SDS011;63974;47.538;18.972;2023-07-31T00:34:05;2.35;;;2.10;;
75400;SDS011;63974;47.538;18.972;2023-07-31T00:37:10;3.93;;;2.10;;
75400;SDS011;63974;47.538;18.972;2023-07-31T00:40:13;2.97;;;2.53;;
75400;SDS011;63974;47.538;18.972;2023-07-31T00:43:16;3.47;;;2.42;;
75400;SDS011;63974;47.538;18.972;2023-07-31T00:46:19;3.25;;;2.80;;
75400;SDS011;63974;47.538;18.972;2023-07-31T00:49:22;4.43;;;1.87;;
75400;SDS011;63974;47.538;18.972;2023-07-31T00:52:25;3.43;;;2.10;;
75400;SDS011;63974;47.538;18.972;2023-07-31T00:55:30;4.20;;;2.08;;
75400;SDS011;63974;47.538;18.972;2023-07-31T00:58:35;3.30;;;1.73;;
75400;SDS011;63974;47.538;18.972;2023-07-31T01:01:38;3.25;;;1.80;;
75400;SDS011;63974;47.538;18.972;2023-07-31T01:04:42;3.22;;;1.92;;
75400;SDS011;63974;47.538;18.972;2023-07-31T01:11:21;3.10;;;1.85;;
75400;SDS011;63974;47.538;18.972;2023-07-31T01:14:29;2.42;;;2.22;;
75400;SDS011;63974;47.538;18.972;2023-07-31T01:17:33;3.67;;;1.80;;
75400;SDS011;63974;47.538;18.972;2023-07-31T01:20:35;4.00;;;2.03;;
75400;SDS011;63974;47.538;18.972;2023-07-31T01:27:12;2.47;;;1.73;;
75400;SDS011;63974;47.538;18.972;2023-07-31T01:30:22;1.67;;;1.23;;
75400;SDS011;63974;47.538;18.972;2023-07-31T01:33:28;2.75;;;1.90;;
75400;SDS011;63974;47.538;18.972;2023-07-31T01:36:31;2.10;;;1.17;;
75400;SDS011;63974;47.538;18.972;2023-07-31T01:39:34;2.77;;;1.80;;
75400;SDS011;63974;47.538;18.972;2023-07-31T01:42:38;2.60;;;2.40;;
75400;SDS011;63974;47.538;18.972;2023-07-31T01:45:41;3.42;;;2.10;;
75400;SDS011;63974;47.538;18.972;2023-07-31T01:48:43;4.03;;;2.13;;
75400;SDS011;63974;47.538;18.972;2023-07-31T01:51:46;3.77;;;2.10;;
75400;SDS011;63974;47.538;18.972;2023-07-31T01:54:49;2.50;;;1.50;;
75400;SDS011;63974;47.538;18.972;2023-07-31T01:57:52;2.65;;;1.90;;
75400;SDS011;63974;47.538;18.972;2023-07-31T02:00:55;2.97;;;1.55;;
75400;SDS011;63974;47.538;18.972;2023-07-31T02:03:58;2.25;;;1.40;;
75400;SDS011;63974;47.538;18.972;2023-07-31T02:07:01;1.98;;;1.42;;
75400;SDS011;63974;47.538;18.972;2023-07-31T02:10:04;1.90;;;1.37;;
75400;SDS011;63974;47.538;18.972;2023-07-31T02:13:07;2.63;;;1.80;;
75400;SDS011;63974;47.538;18.972;2023-07-31T02:16:10;1.92;;;1.45;;
75400;SDS011;63974;47.538;18.972;2023-07-31T02:19:13;3.15;;;1.52;;
75400;SDS011;63974;47.538;18.972;2023-07-31T02:22:16;3.40;;;1.73;;
75400;SDS011;63974;47.538;18.972;2023-07-31T02:25:18;1.60;;;1.50;;
75400;SDS011;63974;47.538;18.972;2023-07-31T02:28:21;2.65;;;1.85;;
75400;SDS011;63974;47.538;18.972;2023-07-31T02:31:24;4.47;;;1.33;;
75400;SDS011;63974;47.538;18.972;2023-07-31T02:34:27;2.38;;;1.50;;
75400;SDS011;63974;47.538;18.972;2023-07-31T02:37:30;2.40;;;1.30;;
75400;SDS011;63974;47.538;18.972;2023-07-31T02:40:33;2.60;;;1.20;;
75400;SDS011;63974;47.538;18.972;2023-07-31T02:43:35;2.97;;;1.63;;
75400;SDS011;63974;47.538;18.972;2023-07-31T02:46:38;2.03;;;1.30;;
75400;SDS011;63974;47.538;18.972;2023-07-31T02:49:41;2.05;;;1.70;;
75400;SDS011;63974;47.538;18.972;2023-07-31T02:52:44;2.13;;;1.70;;
75400;SDS011;63974;47.538;18.972;2023-07-31T02:55:47;2.17;;;1.47;;
75400;SDS011;63974;47.538;18.972;2023-07-31T02:58:50;3.50;;;1.75;;
75400;SDS011;63974;47.538;18.972;2023-07-31T03:01:53;2.95;;;1.35;;
75400;SDS011;63974;47.538;18.972;2023-07-31T03:04:55;1.80;;;1.30;;
75400;SDS011;63974;47.538;18.972;2023-07-31T03:07:58;1.80;;;1.33;;
75400;SDS011;63974;47.538;18.972;2023-07-31T03:11:01;2.00;;;1.27;;
75400;SDS011;63974;47.538;18.972;2023-07-31T03:14:04;3.58;;;1.60;;
75400;SDS011;63974;47.538;18.972;2023-07-31T03:17:07;3.35;;;1.85;;
75400;SDS011;63974;47.538;18.972;2023-07-31T03:20:10;2.13;;;1.40;;
75400;SDS011;63974;47.538;18.972;2023-07-31T03:23:13;3.43;;;1.60;;
75400;SDS011;63974;47.538;18.972;2023-07-31T03:26:16;2.27;;;1.67;;
75400;SDS011;63974;47.538;18.972;2023-07-31T03:29:18;1.70;;;1.48;;
75400;SDS011;63974;47.538;18.972;2023-07-31T03:32:26;2.08;;;1.30;;
75400;SDS011;63974;47.538;18.972;2023-07-31T03:35:29;3.67;;;1.65;;
75400;SDS011;63974;47.538;18.972;2023-07-31T03:38:31;3.08;;;1.60;;
75400;SDS011;63974;47.538;18.972;2023-07-31T03:41:34;2.53;;;1.40;;
75400;SDS011;63974;47.538;18.972;2023-07-31T03:44:37;4.45;;;1.70;;
75400;SDS011;63974;47.538;18.972;2023-07-31T03:47:40;1.88;;;1.65;;
75400;SDS011;63974;47.538;18.972;2023-07-31T03:50:43;3.25;;;2.00;;
75400;SDS011;63974;47.538;18.972;2023-07-31T03:53:46;1.53;;;1.40;;
75400;SDS011;63974;47.538;18.972;2023-07-31T03:56:49;3.00;;;1.20;;
75400;SDS011;63974;47.538;18.972;2023-07-31T03:59:52;1.52;;;1.00;;
75400;SDS011;63974;47.538;18.972;2023-07-31T04:02:55;1.73;;;1.30;;
75400;SDS011;63974;47.538;18.972;2023-07-31T04:05:57;3.42;;;1.10;;
75400;SDS011;63974;47.538;18.972;2023-07-31T04:09:01;1.63;;;1.52;;
75400;SDS011;63974;47.538;18.972;2023-07-31T04:12:05;3.00;;;1.60;;
75400;SDS011;63974;47.538;18.972;2023-07-31T04:15:08;2.10;;;1.58;;
75400;SDS011;63974;47.538;18.972;2023-07-31T04:18:11;1.80;;;1.50;;
75400;SDS011;63974;47.538;18.972;2023-07-31T04:21:13;3.70;;;1.50;;
75400;SDS011;63974;47.538;18.972;2023-07-31T04:24:16;2.17;;;1.40;;
75400;SDS011;63974;47.538;18.972;2023-07-31T04:27:26;3.37;;;1.80;;
75400;SDS011;63974;47.538;18.972;2023-07-31T04:30:29;2.22;;;1.70;;
75400;SDS011;63974;47.538;18.972;2023-07-31T04:33:31;1.60;;;1.45;;
75400;SDS011;63974;47.538;18.972;2023-07-31T04:36:35;3.00;;;1.85;;
75400;SDS011;63974;47.538;18.972;2023-07-31T04:39:39;2.33;;;1.90;;
75400;SDS011;63974;47.538;18.972;2023-07-31T04:42:42;2.20;;;1.77;;
75400;SDS011;63974;47.538;18.972;2023-07-31T04:45:45;2.08;;;1.80;;
75400;SDS011;63974;47.538;18.972;2023-07-31T04:48:49;2.78;;;1.67;;
75400;SDS011;63974;47.538;18.972;2023-07-31T04:51:52;1.90;;;1.60;;
75400;SDS011;63974;47.538;18.972;2023-07-31T04:54:55;3.00;;;2.07;;
75400;SDS011;63974;47.538;18.972;2023-07-31T04:57:58;3.43;;;1.80;;
75400;SDS011;63974;47.538;18.972;2023-07-31T05:01:02;1.50;;;1.40;;
75400;SDS011;63974;47.538;18.972;2023-07-31T05:04:04;2.70;;;1.73;;
75400;SDS011;63974;47.538;18.972;2023-07-31T05:07:07;2.65;;;1.50;;
75400;SDS011;63974;47.538;18.972;2023-07-31T05:10:10;1.77;;;1.40;;
75400;SDS011;63974;47.538;18.972;2023-07-31T05:13:13;2.00;;;1.70;;
75400;SDS011;63974;47.538;18.972;2023-07-31T05:16:16;1.95;;;1.60;;
75400;SDS011;63974;47.538;18.972;2023-07-31T05:19:18;3.15;;;1.30;;
75400;SDS011;63974;47.538;18.972;2023-07-31T05:22:21;2.47;;;1.90;;
75400;SDS011;63974;47.538;18.972;2023-07-31T05:25:24;2.28;;;1.65;;
75400;SDS011;63974;47.538;18.972;2023-07-31T05:28:27;2.10;;;1.90;;
75400;SDS011;63974;47.538;18.972;2023-07-31T05:31:30;2.17;;;1.70;;
75400;SDS011;63974;47.538;18.972;2023-07-31T05:34:34;2.13;;;1.90;;
75400;SDS011;63974;47.538;18.972;2023-07-31T05:37:37;2.65;;;1.30;;
75400;SDS011;63974;47.538;18.972;2023-07-31T05:40:40;2.80;;;1.17;;
75400;SDS011;63974;47.538;18.972;2023-07-31T05:43:44;3.93;;;1.57;;
75400;SDS011;63974;47.538;18.972;2023-07-31T05:46:48;2.85;;;1.70;;
75400;SDS011;63974;47.538;18.972;2023-07-31T05:49:50;1.90;;;1.63;;
75400;SDS011;63974;47.538;18.972;2023-07-31T05:52:56;2.72;;;1.58;;
75400;SDS011;63974;47.538;18.972;2023-07-31T05:55:59;2.10;;;1.30;;
75400;SDS011;63974;47.538;18.972;2023-07-31T05:59:02;3.37;;;1.60;;
75400;SDS011;63974;47.538;18.972;2023-07-31T06:02:05;2.10;;;1.40;;
75400;SDS011;63974;47.538;18.972;2023-07-31T06:05:08;2.22;;;1.58;;
75400;SDS011;63974;47.538;18.972;2023-07-31T06:08:11;1.75;;;1.40;;
75400;SDS011;63974;47.538;18.972;2023-07-31T06:11:14;1.73;;;1.20;;
75400;SDS011;63974;47.538;18.972;2023-07-31T06:14:17;3.63;;;1.80;;
75400;SDS011;63974;47.538;18.972;2023-07-31T06:17:19;2.92;;;1.60;;
75400;SDS011;63974;47.538;18.972;2023-07-31T06:20:23;3.80;;;1.70;;
75400;SDS011;63974;47.538;18.972;2023-07-31T06:23:26;3.25;;;1.60;;
75400;SDS011;63974;47.538;18.972;2023-07-31T06:26:29;1.70;;;1.53;;
75400;SDS011;63974;47.538;18.972;2023-07-31T06:29:32;1.70;;;1.60;;
75400;SDS011;63974;47.538;18.972;2023-07-31T06:32:35;1.77;;;1.63;;
75400;SDS011;63974;47.538;18.972;2023-07-31T06:35:38;2.10;;;1.85;;
75400;SDS011;63974;47.538;18.972;2023-07-31T06:38:41;1.70;;;1.60;;
75400;SDS011;63974;47.538;18.972;2023-07-31T06:41:44;1.90;;;1.37;;
75400;SDS011;63974;47.538;18.972;2023-07-31T06:44:47;1.90;;;1.70;;
75400;SDS011;63974;47.538;18.972;2023-07-31T06:47:49;2.42;;;1.67;;
75400;SDS011;63974;47.538;18.972;2023-07-31T06:50:52;1.95;;;1.35;;
75400;SDS011;63974;47.538;18.972;2023-07-31T06:53:55;4.03;;;1.70;;
75400;SDS011;63974;47.538;18.972;2023-07-31T06:56:58;3.17;;;1.80;;
75400;SDS011;63974;47.538;18.972;2023-07-31T07:00:01;2.07;;;1.57;;
75400;SDS011;63974;47.538;18.972;2023-07-31T07:03:06;3.08;;;1.48;;
75400;SDS011;63974;47.538;18.972;2023-07-31T07:06:09;3.92;;;1.75;;
75400;SDS011;63974;47.538;18.972;2023-07-31T07:09:12;2.78;;;1.30;;
75400;SDS011;63974;47.538;18.972;2023-07-31T07:12:15;2.10;;;1.50;;
75400;SDS011;63974;47.538;18.972;2023-07-31T07:15:17;3.07;;;1.53;;
75400;SDS011;63974;47.538;18.972;2023-07-31T07:18:20;1.88;;;1.60;;
75400;SDS011;63974;47.538;18.972;2023-07-31T07:21:23;2.72;;;1.63;;
75400;SDS011;63974;47.538;18.972;2023-07-31T07:24:26;3.35;;;1.55;;
75400;SDS011;63974;47.538;18.972;2023-07-31T07:27:29;3.37;;;1.70;;
75400;SDS011;63974;47.538;18.972;2023-07-31T07:30:32;1.80;;;1.70;;
75400;SDS011;63974;47.538;18.972;2023-07-31T07:33:34;2.55;;;1.48;;
75400;SDS011;63974;47.538;18.972;2023-07-31T07:36:37;1.70;;;1.40;;
75400;SDS011;63974;47.538;18.972;2023-07-31T07:39:40;1.73;;;1.27;;
75400;SDS011;63974;47.538;18.972;2023-07-31T07:42:43;1.63;;;1.40;;
75400;SDS011;63974;47.538;18.972;2023-07-31T07:45:46;1.90;;;1.40;;
75400;SDS011;63974;47.538;18.972;2023-07-31T07:48:49;3.65;;;1.55;;
75400;SDS011;63974;47.538;18.972;2023-07-31T07:51:51;2.72;;;1.35;;
75400;SDS011;63974;47.538;18.972;2023-07-31T07:54:54;3.28;;;1.58;;
75400;SDS011;63974;47.538;18.972;2023-07-31T07:57:57;2.53;;;1.60;;
75400;SDS011;63974;47.538;18.972;2023-07-31T08:01:00;3.43;;;1.90;;
75400;SDS011;63974;47.538;18.972;2023-07-31T08:04:03;3.05;;;1.83;;
75400;SDS011;63974;47.538;18.972;2023-07-31T08:07:06;3.00;;;1.70;;
75400;SDS011;63974;47.538;18.972;2023-07-31T08:10:09;1.85;;;1.67;;
75400;SDS011;63974;47.538;18.972;2023-07-31T08:13:12;2.03;;;1.63;;
75400;SDS011;63974;47.538;18.972;2023-07-31T08:16:14;2.27;;;1.70;;
75400;SDS011;63974;47.538;18.972;2023-07-31T08:19:18;3.13;;;1.83;;
75400;SDS011;63974;47.538;18.972;2023-07-31T08:22:21;3.08;;;1.92;;
75400;SDS011;63974;47.538;18.972;2023-07-31T08:25:24;3.75;;;1.58;;
75400;SDS011;63974;47.538;18.972;2023-07-31T08:28:27;3.10;;;1.50;;
75400;SDS011;63974;47.538;18.972;2023-07-31T08:31:30;3.57;;;1.60;;
75400;SDS011;63974;47.538;18.972;2023-07-31T08:34:33;3.05;;;1.30;;
75400;SDS011;63974;47.538;18.972;2023-07-31T08:37:35;3.45;;;1.73;;
75400;SDS011;63974;47.538;18.972;2023-07-31T08:40:40;3.60;;;1.77;;
75400;SDS011;63974;47.538;18.972;2023-07-31T08:43:44;2.60;;;1.23;;
75400;SDS011;63974;47.538;18.972;2023-07-31T08:46:48;2.80;;;1.50;;
75400;SDS011;63974;47.538;18.972;2023-07-31T08:49:51;3.75;;;1.75;;
75400;SDS011;63974;47.538;18.972;2023-07-31T08:52:55;2.85;;;1.75;;
75400;SDS011;63974;47.538;18.972;2023-07-31T08:56:00;2.42;;;1.30;;
75400;SDS011;63974;47.538;18.972;2023-07-31T08:59:03;1.33;;;1.23;;
75400;SDS011;63974;47.538;18.972;2023-07-31T09:02:07;3.63;;;1.37;;
75400;SDS011;63974;47.538;18.972;2023-07-31T09:05:11;1.77;;;1.40;;
75400;SDS011;63974;47.538;18.972;2023-07-31T09:08:15;2.45;;;1.70;;
75400;SDS011;63974;47.538;18.972;2023-07-31T09:11:21;2.67;;;1.73;;
75400;SDS011;63974;47.538;18.972;2023-07-31T09:14:26;2.07;;;1.17;;
75400;SDS011;63974;47.538;18.972;2023-07-31T09:17:30;2.37;;;1.40;;
75400;SDS011;63974;47.538;18.972;2023-07-31T09:20:34;2.55;;;1.85;;
75400;SDS011;63974;47.538;18.972;2023-07-31T09:23:44;2.08;;;1.77;;
75400;SDS011;63974;47.538;18.972;2023-07-31T09:26:50;2.95;;;1.70;;
75400;SDS011;63974;47.538;18.972;2023-07-31T09:29:59;3.83;;;1.57;;
75400;SDS011;63974;47.538;18.972;2023-07-31T09:33:02;2.00;;;1.60;;
75400;SDS011;63974;47.538;18.972;2023-07-31T09:36:08;3.33;;;1.98;;
75400;SDS011;63974;47.538;18.972;2023-07-31T09:39:16;2.30;;;1.60;;
75400;SDS011;63974;47.538;18.972;2023-07-31T09:42:25;2.83;;;1.63;;
75400;SDS011;63974;47.538;18.972;2023-07-31T09:45:29;2.00;;;1.57;;
75400;SDS011;63974;47.538;18.972;2023-07-31T09:48:43;2.17;;;1.20;;
75400;SDS011;63974;47.538;18.972;2023-07-31T09:51:45;2.53;;;1.50;;
75400;SDS011;63974;47.538;18.972;2023-07-31T09:54:48;4.55;;;1.50;;
75400;SDS011;63974;47.538;18.972;2023-07-31T09:57:51;3.22;;;1.02;;
75400;SDS011;63974;47.538;18.972;2023-07-31T10:00:57;2.50;;;1.20;;
75400;SDS011;63974;47.538;18.972;2023-07-31T10:04:02;3.37;;;1.20;;
75400;SDS011;63974;47.538;18.972;2023-07-31T10:07:07;3.88;;;1.10;;
75400;SDS011;63974;47.538;18.972;2023-07-31T10:10:10;2.95;;;1.25;;
75400;SDS011;63974;47.538;18.972;2023-07-31T10:13:13;3.65;;;1.52;;
75400;SDS011;63974;47.538;18.972;2023-07-31T10:16:17;1.97;;;1.40;;
75400;SDS011;63974;47.538;18.972;2023-07-31T10:19:21;2.50;;;1.70;;
75400;SDS011;63974;47.538;18.972;2023-07-31T10:22:24;2.38;;;1.63;;
75400;SDS011;63974;47.538;18.972;2023-07-31T10:25:27;4.72;;;1.95;;
75400;SDS011;63974;47.538;18.972;2023-07-31T10:28:32;2.70;;;1.45;;
75400;SDS011;63974;47.538;18.972;2023-07-31T10:31:36;3.13;;;1.97;;
75400;SDS011;63974;47.538;18.972;2023-07-31T10:34:40;3.77;;;1.97;;
75400;SDS011;63974;47.538;18.972;2023-07-31T10:37:44;2.63;;;1.83;;
75400;SDS011;63974;47.538;18.972;2023-07-31T10:40:47;2.95;;;1.85;;
75400;SDS011;63974;47.538;18.972;2023-07-31T10:43:54;4.35;;;1.45;;
75400;SDS011;63974;47.538;18.972;2023-07-31T10:47:00;3.13;;;2.30;;
75400;SDS011;63974;47.538;18.972;2023-07-31T10:50:13;2.90;;;1.90;;
75400;SDS011;63974;47.538;18.972;2023-07-31T10:53:22;2.72;;;2.30;;
75400;SDS011;63974;47.538;18.972;2023-07-31T10:56:27;1.90;;;1.80;;
75400;SDS011;63974;47.538;18.972;2023-07-31T10:59:34;3.28;;;1.67;;
75400;SDS011;63974;47.538;18.972;2023-07-31T11:02:37;2.13;;;1.70;;
75400;SDS011;63974;47.538;18.972;2023-07-31T11:08:43;1.98;;;1.77;;
75400;SDS011;63974;47.538;18.972;2023-07-31T11:11:47;2.22;;;1.67;;
75400;SDS011;63974;47.538;18.972;2023-07-31T11:14:56;2.38;;;1.63;;
75400;SDS011;63974;47.538;18.972;2023-07-31T11:18:00;2.33;;;1.97;;
75400;SDS011;63974;47.538;18.972;2023-07-31T11:21:06;2.10;;;1.53;;
75400;SDS011;63974;47.538;18.972;2023-07-31T11:24:09;3.78;;;1.50;;
75400;SDS011;63974;47.538;18.972;2023-07-31T11:27:15;2.63;;;1.63;;
75400;SDS011;63974;47.538;18.972;2023-07-31T11:30:18;3.85;;;1.75;;
75400;SDS011;63974;47.538;18.972;2023-07-31T11:33:22;2.37;;;1.63;;
75400;SDS011;63974;47.538;18.972;2023-07-31T11:36:25;1.77;;;1.63;;
75400;SDS011;63974;47.538;18.972;2023-07-31T11:39:28;2.15;;;1.75;;
75400;SDS011;63974;47.538;18.972;2023-07-31T11:42:30;2.15;;;1.67;;
75400;SDS011;63974;47.538;18.972;2023-07-31T11:45:33;2.10;;;1.75;;
75400;SDS011;63974;47.538;18.972;2023-07-31T11:48:37;2.00;;;1.80;;
75400;SDS011;63974;47.538;18.972;2023-07-31T11:51:40;2.43;;;2.13;;
75400;SDS011;63974;47.538;18.972;2023-07-31T11:54:43;2.13;;;1.63;;
75400;SDS011;63974;47.538;18.972;2023-07-31T11:57:46;2.95;;;1.90;;
75400;SDS011;63974;47.538;18.972;2023-07-31T12:00:51;1.90;;;1.67;;
75400;SDS011;63974;47.538;18.972;2023-07-31T12:03:55;2.47;;;1.93;;
75400;SDS011;63974;47.538;18.972;2023-07-31T12:07:00;3.13;;;2.27;;
75400;SDS011;63974;47.538;18.972;2023-07-31T12:10:03;4.10;;;1.90;;
75400;SDS011;63974;47.538;18.972;2023-07-31T12:13:10;2.13;;;1.50;;
75400;SDS011;63974;47.538;18.972;2023-07-31T12:16:17;3.08;;;1.52;;
75400;SDS011;63974;47.538;18.972;2023-07-31T12:19:20;4.13;;;1.87;;
75400;SDS011;63974;47.538;18.972;2023-07-31T12:22:22;1.43;;;1.33;;
75400;SDS011;63974;47.538;18.972;2023-07-31T12:25:29;2.92;;;1.40;;
75400;SDS011;63974;47.538;18.972;2023-07-31T12:28:45;2.13;;;1.35;;
75400;SDS011;63974;47.538;18.972;2023-07-31T12:31:51;3.53;;;1.70;;
75400;SDS011;63974;47.538;18.972;2023-07-31T12:34:54;3.13;;;1.57;;
75400;SDS011;63974;47.538;18.972;2023-07-31T12:38:02;2.43;;;2.23;;
75400;SDS011;63974;47.538;18.972;2023-07-31T12:41:05;2.75;;;2.10;;
75400;SDS011;63974;47.538;18.972;2023-07-31T12:44:11;2.67;;;1.67;;
75400;SDS011;63974;47.538;18.972;2023-07-31T12:47:13;2.60;;;1.90;;
75400;SDS011;63974;47.538;18.972;2023-07-31T12:50:17;2.33;;;1.73;;
75400;SDS011;63974;47.538;18.972;2023-07-31T12:53:20;3.17;;;1.80;;
75400;SDS011;63974;47.538;18.972;2023-07-31T12:56:23;3.70;;;2.00;;
75400;SDS011;63974;47.538;18.972;2023-07-31T12:59:26;2.08;;;1.67;;
75400;SDS011;63974;47.538;18.972;2023-07-31T13:02:28;2.30;;;1.83;;
75400;SDS011;63974;47.538;18.972;2023-07-31T13:05:31;3.57;;;2.27;;
75400;SDS011;63974;47.538;18.972;2023-07-31T13:08:34;3.17;;;2.07;;
75400;SDS011;63974;47.538;18.972;2023-07-31T13:11:37;2.17;;;1.65;;
75400;SDS011;63974;47.538;18.972;2023-07-31T13:14:40;3.80;;;1.92;;
75400;SDS011;63974;47.538;18.972;2023-07-31T13:17:43;4.03;;;2.55;;
75400;SDS011;63974;47.538;18.972;2023-07-31T13:20:46;3.23;;;2.00;;
75400;SDS011;63974;47.538;18.972;2023-07-31T13:23:48;2.03;;;1.50;;
75400;SDS011;63974;47.538;18.972;2023-07-31T13:26:51;2.58;;;2.05;;
75400;SDS011;63974;47.538;18.972;2023-07-31T13:29:54;3.42;;;1.70;;
75400;SDS011;63974;47.538;18.972;2023-07-31T13:32:57;3.55;;;2.58;;
75400;SDS011;63974;47.538;18.972;2023-07-31T13:36:00;4.30;;;1.90;;
75400;SDS011;63974;47.538;18.972;2023-07-31T13:39:02;2.40;;;1.60;;
75400;SDS011;63974;47.538;18.972;2023-07-31T13:42:06;2.85;;;2.05;;
75400;SDS011;63974;47.538;18.972;2023-07-31T13:45:10;2.53;;;2.03;;
75400;SDS011;63974;47.538;18.972;2023-07-31T13:48:13;3.63;;;2.05;;
75400;SDS011;63974;47.538;18.972;2023-07-31T13:51:16;2.80;;;1.80;;
75400;SDS011;63974;47.538;18.972;2023-07-31T13:54:19;3.27;;;2.63;;
75400;SDS011;63974;47.538;18.972;2023-07-31T13:57:21;3.00;;;2.63;;
75400;SDS011;63974;47.538;18.972;2023-07-31T14:00:26;2.72;;;2.30;;
75400;SDS011;63974;47.538;18.972;2023-07-31T14:03:31;2.50;;;2.30;;
75400;SDS011;63974;47.538;18.972;2023-07-31T14:06:33;2.37;;;2.17;;
75400;SDS011;63974;47.538;18.972;2023-07-31T14:09:36;3.67;;;2.97;;
75400;SDS011;63974;47.538;18.972;2023-07-31T14:12:39;2.40;;;2.17;;
75400;SDS011;63974;47.538;18.972;2023-07-31T14:15:44;2.17;;;1.98;;
75400;SDS011;63974;47.538;18.972;2023-07-31T14:18:47;2.65;;;2.20;;
75400;SDS011;63974;47.538;18.972;2023-07-31T14:21:50;2.43;;;2.23;;
75400;SDS011;63974;47.538;18.972;2023-07-31T14:25:11;3.53;;;3.03;;
75400;SDS011;63974;47.538;18.972;2023-07-31T14:28:14;4.22;;;2.67;;
75400;SDS011;63974;47.538;18.972;2023-07-31T14:31:17;2.70;;;2.42;;
75400;SDS011;63974;47.538;18.972;2023-07-31T14:34:20;2.95;;;2.75;;
75400;SDS011;63974;47.538;18.972;2023-07-31T14:37:25;3.10;;;2.07;;
75400;SDS011;63974;47.538;18.972;2023-07-31T14:40:29;2.50;;;2.30;;
75400;SDS011;63974;47.538;18.972;2023-07-31T14:43:32;3.10;;;2.63;;
75400;SDS011;63974;47.538;18.972;2023-07-31T14:46:35;3.58;;;2.53;;
75400;SDS011;63974;47.538;18.972;2023-07-31T14:49:38;2.38;;;2.17;;
75400;SDS011;63974;47.538;18.972;2023-07-31T14:52:41;2.80;;;2.40;;
75400;SDS011;63974;47.538;18.972;2023-07-31T14:55:44;4.87;;;2.67;;
75400;SDS011;63974;47.538;18.972;2023-07-31T14:58:47;2.80;;;2.58;;
75400;SDS011;63974;47.538;18.972;2023-07-31T15:01:49;5.32;;;2.63;;
75400;SDS011;63974;47.538;18.972;2023-07-31T15:04:52;2.72;;;2.53;;
75400;SDS011;63974;47.538;18.972;2023-07-31T15:07:55;2.90;;;2.30;;
75400;SDS011;63974;47.538;18.972;2023-07-31T15:10:58;2.43;;;2.23;;
75400;SDS011;63974;47.538;18.972;2023-07-31T15:14:01;2.60;;;2.42;;
75400;SDS011;63974;47.538;18.972;2023-07-31T15:17:04;3.75;;;2.22;;
75400;SDS011;63974;47.538;18.972;2023-07-31T15:20:07;4.07;;;2.83;;
75400;SDS011;63974;47.538;18.972;2023-07-31T15:23:10;2.77;;;2.20;;
75400;SDS011;63974;47.538;18.972;2023-07-31T15:26:13;3.33;;;3.03;;
75400;SDS011;63974;47.538;18.972;2023-07-31T15:29:16;3.88;;;2.72;;
75400;SDS011;63974;47.538;18.972;2023-07-31T15:32:22;2.95;;;2.65;;
75400;SDS011;63974;47.538;18.972;2023-07-31T15:35:26;2.42;;;2.25;;
75400;SDS011;63974;47.538;18.972;2023-07-31T15:38:28;2.67;;;2.20;;
75400;SDS011;63974;47.538;18.972;2023-07-31T15:41:31;5.73;;;2.73;;
75400;SDS011;63974;47.538;18.972;2023-07-31T15:44:34;2.67;;;2.47;;
75400;SDS011;63974;47.538;18.972;2023-07-31T15:47:37;3.55;;;2.65;;
75400;SDS011;63974;47.538;18.972;2023-07-31T15:50:41;2.05;;;1.90;;
75400;SDS011;63974;47.538;18.972;2023-07-31T15:53:44;2.47;;;2.27;;
75400;SDS011;63974;47.538;18.972;2023-07-31T15:56:46;2.40;;;2.13;;
75400;SDS011;63974;47.538;18.972;2023-07-31T15:59:49;2.97;;;2.13;;
75400;SDS011;63974;47.538;18.972;2023-07-31T16:02:52;2.50;;;2.30;;
75400;SDS011;63974;47.538;18.972;2023-07-31T16:05:55;3.03;;;2.55;;
75400;SDS011;63974;47.538;18.972;2023-07-31T16:08:58;3.23;;;2.43;;
75400;SDS011;63974;47.538;18.972;2023-07-31T16:12:00;3.03;;;2.73;;
75400;SDS011;63974;47.538;18.972;2023-07-31T16:15:04;3.63;;;2.38;;
75400;SDS011;63974;47.538;18.972;2023-07-31T16:18:07;2.25;;;2.05;;
75400;SDS011;63974;47.538;18.972;2023-07-31T16:21:10;2.67;;;1.98;;
75400;SDS011;63974;47.538;18.972;2023-07-31T16:24:12;2.97;;;2.20;;
75400;SDS011;63974;47.538;18.972;2023-07-31T16:27:15;3.47;;;2.67;;
75400;SDS011;63974;47.538;18.972;2023-07-31T16:30:18;2.42;;;1.90;;
75400;SDS011;63974;47.538;18.972;2023-07-31T16:33:21;2.72;;;2.03;;
75400;SDS011;63974;47.538;18.972;2023-07-31T16:36:24;3.33;;;2.40;;
75400;SDS011;63974;47.538;18.972;2023-07-31T16:39:27;2.77;;;2.27;;
75400;SDS011;63974;47.538;18.972;2023-07-31T16:42:30;3.27;;;2.13;;
75400;SDS011;63974;47.538;18.972;2023-07-31T16:45:33;3.30;;;1.77;;
75400;SDS011;63974;47.538;18.972;2023-07-31T16:48:36;2.70;;;1.90;;
75400;SDS011;63974;47.538;18.972;2023-07-31T16:51:39;2.78;;;2.50;;
75400;SDS011;63974;47.538;18.972;2023-07-31T16:54:43;2.43;;;2.00;;
75400;SDS011;63974;47.538;18.972;2023-07-31T16:57:46;3.53;;;1.87;;
75400;SDS011;63974;47.538;18.972;2023-07-31T17:00:49;3.03;;;2.03;;
75400;SDS011;63974;47.538;18.972;2023-07-31T17:03:52;3.22;;;2.05;;
75400;SDS011;63974;47.538;18.972;2023-07-31T17:06:55;2.72;;;2.03;;
75400;SDS011;63974;47.538;18.972;2023-07-31T17:09:57;3.80;;;2.17;;
75400;SDS011;63974;47.538;18.972;2023-07-31T17:13:00;3.37;;;2.50;;
75400;SDS011;63974;47.538;18.972;2023-07-31T17:16:03;2.75;;;2.55;;
75400;SDS011;63974;47.538;18.972;2023-07-31T17:19:06;4.78;;;2.20;;
75400;SDS011;63974;47.538;18.972;2023-07-31T17:22:08;3.20;;;2.42;;
75400;SDS011;63974;47.538;18.972;2023-07-31T17:25:11;2.10;;;1.90;;
75400;SDS011;63974;47.538;18.972;2023-07-31T17:28:14;3.17;;;2.67;;
75400;SDS011;63974;47.538;18.972;2023-07-31T17:31:17;2.50;;;2.20;;
75400;SDS011;63974;47.538;18.972;2023-07-31T17:34:20;2.90;;;1.67;;
75400;SDS011;63974;47.538;18.972;2023-07-31T17:37:22;2.55;;;2.35;;
75400;SDS011;63974;47.538;18.972;2023-07-31T17:40:25;2.10;;;2.00;;
75400;SDS011;63974;47.538;18.972;2023-07-31T17:43:29;2.93;;;2.30;;
75400;SDS011;63974;47.538;18.972;2023-07-31T17:46:32;2.17;;;1.92;;
75400;SDS011;63974;47.538;18.972;2023-07-31T17:49:34;2.20;;;2.00;;
75400;SDS011;63974;47.538;18.972;2023-07-31T17:52:37;2.80;;;1.73;;
75400;SDS011;63974;47.538;18.972;2023-07-31T17:55:40;3.47;;;1.98;;
75400;SDS011;63974;47.538;18.972;2023-07-31T17:58:43;2.30;;;2.10;;
75400;SDS011;63974;47.538;18.972;2023-07-31T18:01:46;2.45;;;1.90;;
75400;SDS011;63974;47.538;18.972;2023-07-31T18:04:49;2.17;;;1.77;;
75400;SDS011;63974;47.538;18.972;2023-07-31T18:07:52;2.55;;;1.67;;
75400;SDS011;63974;47.538;18.972;2023-07-31T18:10:54;1.80;;;1.70;;
75400;SDS011;63974;47.538;18.972;2023-07-31T18:13:57;3.20;;;2.03;;
75400;SDS011;63974;47.538;18.972;2023-07-31T18:17:01;3.72;;;2.30;;
75400;SDS011;63974;47.538;18.972;2023-07-31T18:20:06;2.95;;;1.77;;
75400;SDS011;63974;47.538;18.972;2023-07-31T18:23:11;2.25;;;1.98;;
75400;SDS011;63974;47.538;18.972;2023-07-31T18:26:14;4.30;;;2.57;;